createdAt,value
2023-03-30T00:00:42.894Z,43.75
2023-03-30T00:03:09.594Z,43.75
2023-03-30T00:05:36.157Z,43.73
2023-03-30T00:08:02.576Z,43.72
2023-03-30T00:10:29.324Z,43.82
2023-03-30T00:12:56.105Z,43.75
2023-03-30T00:15:22.703Z,44.03
2023-03-30T00:17:49.120Z,44.02
2023-03-30T00:20:15.670Z,43.95
2023-03-30T00:22:42.045Z,44.09
2023-03-30T00:25:08.934Z,44.06
2023-03-30T00:27:36.050Z,44.04
2023-03-30T00:30:02.865Z,44.00
2023-03-30T00:32:29.247Z,44.05
2023-03-30T00:34:55.614Z,44.02
2023-03-30T00:37:21.978Z,44.05
2023-03-30T00:39:48.487Z,43.97
2023-03-30T00:42:16.056Z,44.01
2023-03-30T00:45:01.380Z,44.03
2023-03-30T00:47:28.104Z,44.09
2023-03-30T00:49:54.602Z,44.17
2023-03-30T00:52:24.812Z,44.03
2023-03-30T00:54:51.698Z,44.18
2023-03-30T00:57:18.084Z,44.24
2023-03-30T00:59:44.483Z,44.10
2023-03-30T01:02:10.926Z,44.14
2023-03-30T01:04:37.588Z,44.14
2023-03-30T01:07:04.281Z,44.01
2023-03-30T01:09:30.603Z,44.19
2023-03-30T01:11:56.968Z,44.07
2023-03-30T01:14:24.366Z,44.08
2023-03-30T01:16:56.714Z,44.14
2023-03-30T01:19:43.605Z,44.10
2023-03-30T01:22:36.776Z,44.09
2023-03-30T01:25:21.740Z,44.14
2023-03-30T01:28:07.199Z,44.22
2023-03-30T01:30:52.130Z,44.18
2023-03-30T01:33:37.320Z,44.16
2023-03-30T01:36:22.328Z,44.10
2023-03-30T01:39:07.749Z,44.18
2023-03-30T01:41:35.644Z,44.13
2023-03-30T01:44:04.276Z,44.22
2023-03-30T01:46:31.581Z,44.22
2023-03-30T01:49:10.753Z,44.11
2023-03-30T01:51:39.084Z,44.17
2023-03-30T02:34:39.156Z,44.32
2023-03-30T02:37:09.935Z,44.40
2023-03-30T02:39:42.428Z,44.36
2023-03-30T02:42:16.615Z,44.39
2023-03-30T02:44:50.267Z,44.31
2023-03-30T02:47:19.582Z,44.34
2023-03-30T02:50:15.511Z,44.34
2023-03-30T02:52:59.153Z,44.17
2023-03-30T02:55:34.601Z,44.23
2023-03-30T02:58:31.955Z,44.28
2023-03-30T03:01:19.288Z,44.31
2023-03-30T03:03:58.200Z,44.14
2023-03-30T03:06:26.087Z,44.44
2023-03-30T03:08:54.768Z,44.28
2023-03-30T03:11:24.329Z,44.37
2023-03-30T03:13:50.664Z,44.44
2023-03-30T03:16:17.131Z,44.53
2023-03-30T03:19:01.424Z,44.45
2023-03-30T03:21:28.312Z,44.36
2023-03-30T03:23:54.659Z,44.54
2023-03-30T03:26:22.743Z,44.58
2023-03-30T03:28:49.346Z,44.28
2023-03-30T03:31:15.769Z,44.21
2023-03-30T03:33:42.212Z,44.26
2023-03-30T03:36:37.999Z,44.30
2023-03-30T03:39:04.420Z,44.25
2023-03-30T03:41:31.178Z,44.44
2023-03-30T03:43:57.548Z,44.33
2023-03-30T03:46:24.758Z,44.38
2023-03-30T03:48:51.140Z,44.48
2023-03-30T03:51:17.503Z,44.49
2023-03-30T03:53:43.865Z,44.39
2023-03-30T03:56:12.679Z,44.49
2023-03-30T03:58:39.037Z,44.50
2023-03-30T04:01:07.111Z,44.37
2023-03-30T04:03:33.696Z,44.36
2023-03-30T04:06:00.609Z,44.34
2023-03-30T04:08:28.510Z,44.37
2023-03-30T04:10:57.283Z,44.37
2023-03-30T04:13:32.927Z,44.43
2023-03-30T04:16:15.446Z,44.41
2023-03-30T04:19:00.617Z,44.42
2023-03-30T04:21:52.959Z,44.52
2023-03-30T04:24:52.748Z,44.48
2023-03-30T04:27:42.633Z,44.60
2023-03-30T04:30:30.552Z,44.55
2023-03-30T04:33:35.014Z,44.46
2023-03-30T04:36:32.716Z,44.50
2023-03-30T04:39:18.129Z,44.38
2023-03-30T04:42:07.350Z,44.23
2023-03-30T04:44:47.236Z,44.45
2023-03-30T04:47:43.007Z,44.40
2023-03-30T04:50:35.132Z,44.27
2023-03-30T04:53:19.886Z,44.45
2023-03-30T04:56:04.942Z,44.42
2023-03-30T04:58:38.537Z,44.41
2023-03-30T05:01:22.588Z,44.44
2023-03-30T05:04:06.454Z,44.49
2023-03-30T05:06:51.629Z,44.49
2023-03-30T05:09:40.800Z,44.61
2023-03-30T05:12:25.700Z,44.62
2023-03-30T05:15:06.511Z,44.45
2023-03-30T05:18:09.079Z,44.59
2023-03-30T05:20:48.976Z,44.51
2023-03-30T05:23:27.195Z,44.50
2023-03-30T05:26:16.636Z,44.43
2023-03-30T05:28:57.013Z,44.55
2023-03-30T05:31:36.592Z,44.65
2023-03-30T05:34:05.513Z,44.45
2023-03-30T05:36:44.375Z,44.49
2023-03-30T05:39:29.063Z,44.58
2023-03-30T05:42:30.983Z,44.65
2023-03-30T05:45:16.022Z,44.61
2023-03-30T05:48:17.633Z,44.54
2023-03-30T05:50:57.537Z,44.61
2023-03-30T05:53:33.965Z,44.67
2023-03-30T05:56:24.977Z,44.60
2023-03-30T05:58:56.155Z,44.44
2023-03-30T06:01:47.434Z,44.62
2023-03-30T06:04:13.895Z,45.60
2023-03-30T06:06:41.949Z,45.76
2023-03-30T06:09:08.830Z,48.01
2023-03-30T06:11:36.235Z,46.81
2023-03-30T06:14:11.810Z,46.66
2023-03-30T06:16:40.343Z,47.04
2023-03-30T06:19:07.909Z,48.42
2023-03-30T06:21:34.394Z,48.91
2023-03-30T06:24:09.450Z,48.92
2023-03-30T06:26:38.342Z,49.56
2023-03-30T06:29:04.690Z,49.84
2023-03-30T06:31:31.477Z,47.92
2023-03-30T06:34:20.626Z,47.30
2023-03-30T06:36:47.048Z,47.84
2023-03-30T06:39:15.840Z,47.71
2023-03-30T06:41:42.432Z,48.45
2023-03-30T06:44:24.007Z,49.56
2023-03-30T06:46:50.613Z,48.20
2023-03-30T06:49:16.934Z,46.39
2023-03-30T06:51:43.464Z,45.45
2023-03-30T06:54:11.156Z,45.35
2023-03-30T06:56:42.930Z,45.10
2023-03-30T06:59:12.364Z,44.86
2023-03-30T07:01:57.361Z,44.86
2023-03-30T07:04:47.113Z,44.38
2023-03-30T07:07:32.324Z,44.79
2023-03-30T07:09:58.883Z,45.00
2023-03-30T07:12:25.424Z,44.53
2023-03-30T07:14:51.972Z,44.27
2023-03-30T07:17:18.360Z,44.20
2023-03-30T07:19:44.746Z,44.19
2023-03-30T07:22:11.407Z,44.10
2023-03-30T07:24:37.788Z,44.52
2023-03-30T07:27:04.173Z,44.61
2023-03-30T07:29:31.130Z,44.58
2023-03-30T07:31:57.553Z,44.55
2023-03-30T07:34:24.039Z,44.62
2023-03-30T07:36:54.811Z,44.55
2023-03-30T07:39:22.364Z,44.64
2023-03-30T07:41:50.714Z,44.61
2023-03-30T07:44:18.001Z,44.57
2023-03-30T07:46:44.438Z,44.57
2023-03-30T07:49:16.980Z,44.53
2023-03-30T07:51:43.359Z,44.46
2023-03-30T07:54:19.213Z,45.09
2023-03-30T07:56:58.960Z,45.67
2023-03-30T07:59:25.502Z,45.38
2023-03-30T08:01:56.129Z,44.50
2023-03-30T08:04:38.059Z,44.46
2023-03-30T08:07:04.737Z,44.38
2023-03-30T08:09:31.214Z,44.13
2023-03-30T08:11:57.666Z,44.39
2023-03-30T08:14:26.469Z,45.01
2023-03-30T08:16:53.449Z,44.31
2023-03-30T08:19:20.475Z,44.98
2023-03-30T08:21:47.191Z,44.57
2023-03-30T08:24:13.584Z,44.49
2023-03-30T08:26:39.933Z,44.15
2023-03-30T08:29:07.092Z,44.19
2023-03-30T08:31:33.562Z,44.27
2023-03-30T08:34:00.127Z,44.22
2023-03-30T08:36:26.586Z,44.09
2023-03-30T08:38:54.375Z,44.13
2023-03-30T08:41:20.642Z,44.05
2023-03-30T08:43:48.825Z,44.25
2023-03-30T08:46:15.741Z,44.14
2023-03-30T08:48:42.953Z,44.25
2023-03-30T08:51:19.409Z,44.18
2023-03-30T08:53:45.729Z,44.15
2023-03-30T08:56:20.672Z,44.00
2023-03-30T08:58:46.961Z,43.41
2023-03-30T09:01:18.574Z,43.73
2023-03-30T09:04:05.264Z,43.62
2023-03-30T09:06:39.960Z,43.68
2023-03-30T09:09:07.337Z,44.41
2023-03-30T09:11:34.054Z,44.19
2023-03-30T09:14:02.881Z,43.95
2023-03-30T09:16:33.625Z,44.09
2023-03-30T09:19:04.460Z,44.23
2023-03-30T09:21:31.608Z,44.07
2023-03-30T09:23:58.905Z,44.18
2023-03-30T09:26:34.546Z,44.18
2023-03-30T09:29:06.367Z,43.79
2023-03-30T09:31:37.737Z,43.93
2023-03-30T09:34:07.875Z,43.68
2023-03-30T09:36:39.447Z,43.80
2023-03-30T09:39:09.310Z,43.97
2023-03-30T09:41:41.446Z,43.95
2023-03-30T09:44:11.307Z,43.97
2023-03-30T09:46:37.675Z,43.88
2023-03-30T09:49:14.415Z,44.22
2023-03-30T09:51:54.406Z,43.80
2023-03-30T09:54:21.319Z,44.38
2023-03-30T09:56:51.332Z,44.28
2023-03-30T09:59:22.205Z,44.72
2023-03-30T10:01:48.560Z,45.14
2023-03-30T10:04:16.581Z,44.78
2023-03-30T10:06:47.066Z,44.63
2023-03-30T10:09:13.423Z,44.95
2023-03-30T10:11:43.735Z,44.96
2023-03-30T10:14:28.884Z,44.87
2023-03-30T10:16:56.035Z,45.33
2023-03-30T10:19:22.416Z,44.54
2023-03-30T10:21:48.742Z,44.41
2023-03-30T10:24:15.032Z,44.17
2023-03-30T10:26:45.048Z,44.53
2023-03-30T10:29:16.243Z,44.90
2023-03-30T10:31:43.155Z,44.78
2023-03-30T10:34:16.925Z,44.84
2023-03-30T10:36:43.269Z,45.11
2023-03-30T10:39:28.201Z,45.21
2023-03-30T10:41:54.781Z,45.12
2023-03-30T10:44:34.859Z,45.34
2023-03-30T10:47:15.197Z,45.65
2023-03-30T10:49:44.744Z,46.31
2023-03-30T10:52:18.254Z,45.59
2023-03-30T10:54:46.937Z,45.08
2023-03-30T10:57:14.061Z,45.15
2023-03-30T10:59:50.248Z,44.55
2023-03-30T11:02:22.430Z,45.08
2023-03-30T11:04:49.968Z,45.15
2023-03-30T11:07:17.565Z,44.35
2023-03-30T11:09:51.286Z,44.44
2023-03-30T11:12:20.440Z,44.42
2023-03-30T11:14:47.733Z,44.34
2023-03-30T11:17:17.711Z,44.15
2023-03-30T11:19:45.499Z,44.42
2023-03-30T11:22:17.178Z,44.93
2023-03-30T11:24:43.505Z,45.29
2023-03-30T11:27:39.451Z,45.58
2023-03-30T11:30:09.501Z,45.71
2023-03-30T11:32:43.557Z,45.51
2023-03-30T11:35:27.059Z,45.15
2023-03-30T11:37:53.416Z,45.05
2023-03-30T11:40:26.766Z,45.59
2023-03-30T11:42:53.769Z,45.70
2023-03-30T11:45:20.638Z,45.59
2023-03-30T11:48:05.401Z,45.60
2023-03-30T11:50:35.385Z,45.60
2023-03-30T11:53:06.429Z,45.68
2023-03-30T11:55:41.133Z,45.99
2023-03-30T11:58:14.636Z,45.98
2023-03-30T12:00:43.341Z,46.36
2023-03-30T12:03:13.402Z,46.16
2023-03-30T12:05:40.649Z,46.15
2023-03-30T12:08:25.865Z,45.91
2023-03-30T12:10:55.326Z,45.82
2023-03-30T12:13:21.655Z,46.09
2023-03-30T12:16:00.871Z,46.16
2023-03-30T12:18:27.237Z,45.85
2023-03-30T12:20:55.945Z,46.17
2023-03-30T12:23:22.215Z,46.52
2023-03-30T12:25:51.625Z,45.97
2023-03-30T12:28:18.002Z,46.72
2023-03-30T12:31:02.590Z,46.53
2023-03-30T12:33:29.801Z,47.06
2023-03-30T12:35:57.163Z,47.50
2023-03-30T12:38:25.521Z,47.55
2023-03-30T12:40:55.761Z,47.52
2023-03-30T12:43:24.238Z,47.63
2023-03-30T12:46:02.261Z,47.29
2023-03-30T12:48:44.097Z,47.64
2023-03-30T12:51:21.841Z,47.49
2023-03-30T12:54:03.311Z,47.02
2023-03-30T12:56:45.003Z,46.69
2023-03-30T12:59:24.253Z,46.29
2023-03-30T13:01:59.290Z,46.18
2023-03-30T13:04:26.564Z,46.93
2023-03-30T13:06:53.803Z,47.20
2023-03-30T13:09:20.086Z,46.81
2023-03-30T13:11:47.006Z,46.81
2023-03-30T13:14:25.344Z,47.56
2023-03-30T13:16:52.154Z,47.63
2023-03-30T13:19:22.671Z,47.59
2023-03-30T13:21:49.496Z,47.79
2023-03-30T13:24:42.122Z,47.28
2023-03-30T13:27:14.347Z,47.31
2023-03-30T13:29:41.011Z,47.16
2023-03-30T13:32:07.249Z,47.17
2023-03-30T13:34:38.462Z,47.18
2023-03-30T13:37:23.527Z,47.27
2023-03-30T13:39:55.496Z,47.72
2023-03-30T13:42:32.953Z,47.57
2023-03-30T13:45:08.182Z,47.42
2023-03-30T13:47:47.248Z,47.65
2023-03-30T13:50:16.079Z,47.60
2023-03-30T13:52:46.038Z,47.94
2023-03-30T13:55:17.015Z,47.65
2023-03-30T13:57:44.191Z,47.58
2023-03-30T14:00:33.033Z,47.48
2023-03-30T14:03:00.749Z,47.53
2023-03-30T14:05:27.814Z,46.56
2023-03-30T14:07:57.793Z,46.85
2023-03-30T14:10:24.185Z,46.76
2023-03-30T14:12:54.064Z,46.89
2023-03-30T14:15:24.361Z,46.94
2023-03-30T14:17:52.113Z,47.30
2023-03-30T14:20:21.412Z,46.77
2023-03-30T14:22:47.803Z,47.69
2023-03-30T14:25:26.352Z,47.66
2023-03-30T14:27:52.703Z,47.71
2023-03-30T14:30:23.057Z,47.30
2023-03-30T14:33:08.374Z,47.28
2023-03-30T14:35:35.312Z,47.43
2023-03-30T14:38:13.812Z,47.37
2023-03-30T14:40:43.103Z,47.21
2023-03-30T14:43:13.136Z,47.12
2023-03-30T14:45:39.507Z,47.45
2023-03-30T14:48:06.152Z,47.93
2023-03-30T14:50:32.490Z,48.33
2023-03-30T14:52:58.803Z,48.66
2023-03-30T14:55:25.279Z,48.71
2023-03-30T14:57:51.616Z,49.61
2023-03-30T15:00:20.383Z,48.41
2023-03-30T15:02:47.591Z,48.28
2023-03-30T15:05:16.526Z,48.06
2023-03-30T15:07:42.851Z,47.80
2023-03-30T15:10:17.592Z,48.20
2023-03-30T15:12:43.911Z,48.34
2023-03-30T15:15:11.935Z,47.34
2023-03-30T15:17:38.298Z,47.31
2023-03-30T15:20:07.519Z,47.33
2023-03-30T15:22:35.020Z,47.46
2023-03-30T15:25:02.081Z,47.71
2023-03-30T15:27:28.419Z,47.71
2023-03-30T15:29:55.207Z,47.59
2023-03-30T15:32:36.074Z,48.32
2023-03-30T15:35:16.957Z,48.48
2023-03-30T15:37:51.684Z,48.74
2023-03-30T15:40:30.387Z,48.52
2023-03-30T15:43:12.814Z,48.89
2023-03-30T15:45:39.167Z,49.13
2023-03-30T15:48:08.870Z,48.67
2023-03-30T15:50:35.363Z,48.85
2023-03-30T15:53:01.854Z,48.30
2023-03-30T15:55:31.809Z,48.07
2023-03-30T15:57:58.170Z,48.26
2023-03-30T16:00:25.937Z,47.88
2023-03-30T16:02:57.634Z,48.44
2023-03-30T16:05:24.777Z,48.60
2023-03-30T16:07:51.153Z,48.66
2023-03-30T16:10:20.652Z,48.49
2023-03-30T16:12:47.119Z,48.58
2023-03-30T16:15:17.088Z,48.12
2023-03-30T16:17:43.439Z,48.20
2023-03-30T16:20:17.045Z,48.01
2023-03-30T16:22:43.423Z,48.67
2023-03-30T16:25:09.800Z,48.75
2023-03-30T16:27:36.786Z,48.70
2023-03-30T16:30:10.439Z,48.57
2023-03-30T16:32:36.807Z,48.88
2023-03-30T16:35:03.255Z,48.69
2023-03-30T16:37:29.596Z,48.47
2023-03-30T16:39:56.048Z,48.42
2023-03-30T16:42:22.425Z,48.30
2023-03-30T16:44:48.755Z,48.40
2023-03-30T16:47:15.567Z,48.43
2023-03-30T16:49:41.903Z,48.87
2023-03-30T16:52:08.750Z,48.96
2023-03-30T16:54:35.186Z,49.25
2023-03-30T16:57:01.785Z,49.30
2023-03-30T16:59:31.387Z,49.48
2023-03-30T17:01:57.728Z,49.49
2023-03-30T17:04:24.065Z,49.33
2023-03-30T17:06:50.445Z,49.44
2023-03-30T17:09:17.615Z,49.39
2023-03-30T17:11:44.228Z,49.48
2023-03-30T17:14:10.671Z,49.62
2023-03-30T17:16:37.025Z,49.58
2023-03-30T17:19:03.376Z,49.80
2023-03-30T17:21:29.717Z,49.64
2023-03-30T17:23:56.064Z,49.88
2023-03-30T17:26:22.444Z,49.84
2023-03-30T17:28:48.860Z,50.08
2023-03-30T17:31:16.682Z,50.06
2023-03-30T17:33:43.265Z,49.86
2023-03-30T17:36:16.189Z,50.14
2023-03-30T17:38:43.550Z,50.25
2023-03-30T17:41:11.090Z,49.98
2023-03-30T17:43:37.407Z,49.89
2023-03-30T17:46:03.742Z,50.08
2023-03-30T17:48:30.092Z,49.75
2023-03-30T17:50:56.545Z,50.02
2023-03-30T17:53:23.332Z,50.69
2023-03-30T17:55:51.766Z,50.70
2023-03-30T17:58:22.211Z,50.88
2023-03-30T18:00:48.631Z,50.96
2023-03-30T18:03:15.706Z,51.14
2023-03-30T18:05:42.122Z,50.84
2023-03-30T18:08:14.468Z,50.49
2023-03-30T18:10:40.829Z,50.91
2023-03-30T18:13:07.177Z,50.90
2023-03-30T18:15:33.535Z,50.79
2023-03-30T18:18:00.373Z,50.19
2023-03-30T18:20:27.584Z,50.01
2023-03-30T18:22:53.906Z,50.05
2023-03-30T18:25:31.615Z,49.85
2023-03-30T18:27:58.907Z,49.83
2023-03-30T18:30:26.623Z,49.41
2023-03-30T18:32:52.989Z,48.94
2023-03-30T18:35:19.487Z,49.97
2023-03-30T18:37:45.802Z,49.37
2023-03-30T18:40:14.338Z,49.87
2023-03-30T18:42:45.407Z,49.50
2023-03-30T18:45:14.220Z,49.70
2023-03-30T18:47:40.621Z,49.75
2023-03-30T18:50:36.233Z,49.82
2023-03-30T18:53:02.967Z,49.80
2023-03-30T18:55:30.468Z,49.65
2023-03-30T18:57:57.848Z,49.69
2023-03-30T19:00:26.222Z,49.61
2023-03-30T19:02:52.800Z,49.62
2023-03-30T19:05:19.463Z,49.82
2023-03-30T19:07:45.806Z,49.74
2023-03-30T19:10:13.148Z,49.83
2023-03-30T19:12:39.483Z,49.80
2023-03-30T19:15:06.060Z,49.72
2023-03-30T19:17:32.442Z,49.83
2023-03-30T19:19:58.811Z,49.80
2023-03-30T19:22:25.256Z,49.68
2023-03-30T19:24:51.585Z,49.67
2023-03-30T19:27:17.899Z,49.80
2023-03-30T19:29:44.225Z,50.07
2023-03-30T19:32:11.666Z,49.96
2023-03-30T19:34:38.006Z,49.73
2023-03-30T19:37:04.338Z,49.89
2023-03-30T19:39:30.881Z,49.69
2023-03-30T19:41:57.200Z,49.62
2023-03-30T19:44:23.511Z,49.74
2023-03-30T19:46:49.840Z,49.78
2023-03-30T19:49:16.167Z,49.63
2023-03-30T19:51:42.490Z,49.63
2023-03-30T19:54:09.046Z,49.60
2023-03-30T19:56:35.385Z,49.57
2023-03-30T19:59:01.812Z,49.91
2023-03-30T20:01:28.182Z,49.85
2023-03-30T20:03:54.576Z,50.10
2023-03-30T20:06:20.944Z,50.26
2023-03-30T20:08:47.284Z,50.18
2023-03-30T20:11:13.673Z,50.41
2023-03-30T20:13:45.312Z,50.17
2023-03-30T20:16:14.360Z,50.18
2023-03-30T20:18:40.790Z,50.32
2023-03-30T20:21:07.590Z,50.11
2023-03-30T20:23:34.031Z,50.41
2023-03-30T20:26:02.859Z,50.12
2023-03-30T20:28:29.194Z,50.24
2023-03-30T20:30:56.004Z,50.28
2023-03-30T20:33:22.544Z,50.21
2023-03-30T20:35:52.101Z,50.60
2023-03-30T20:38:18.508Z,50.50
2023-03-30T20:40:57.692Z,50.54
2023-03-30T20:43:27.009Z,50.39
2023-03-30T20:46:02.525Z,50.14
2023-03-30T20:48:33.551Z,50.01
2023-03-30T20:51:01.730Z,50.48
2023-03-30T20:53:28.901Z,50.04
2023-03-30T20:55:55.901Z,49.67
2023-03-30T20:58:22.458Z,49.73
2023-03-30T21:00:52.083Z,49.38
2023-03-30T21:03:19.552Z,49.48
2023-03-30T21:05:46.028Z,49.81
2023-03-30T21:08:12.410Z,49.89
2023-03-30T21:10:42.571Z,49.81
2023-03-30T21:13:08.949Z,50.41
2023-03-30T21:15:35.502Z,50.62
2023-03-30T21:18:01.879Z,50.43
2023-03-30T21:20:28.275Z,50.45
2023-03-30T21:22:54.601Z,50.27
2023-03-30T21:25:20.936Z,50.35
2023-03-30T21:27:47.298Z,50.27
2023-03-30T21:30:14.335Z,50.44
2023-03-30T21:32:40.712Z,50.49
2023-03-30T21:35:07.104Z,50.27
2023-03-30T21:37:33.470Z,50.11
2023-03-30T21:39:59.811Z,50.36
2023-03-30T21:42:26.189Z,50.36
2023-03-30T21:44:52.587Z,50.50
2023-03-30T21:47:18.936Z,50.33
2023-03-30T21:49:45.271Z,50.36
2023-03-30T21:52:11.779Z,50.34
2023-03-30T21:54:38.150Z,50.41
2023-03-30T21:57:05.671Z,50.34
2023-03-30T21:59:32.067Z,50.38
2023-03-30T22:01:58.438Z,50.31
2023-03-30T22:04:24.780Z,50.46
2023-03-30T22:06:51.531Z,50.30
2023-03-30T22:09:17.889Z,50.19
2023-03-30T22:11:44.254Z,50.16
2023-03-30T22:14:10.657Z,50.43
2023-03-30T22:16:37.097Z,50.35
2023-03-30T22:19:04.170Z,50.20
2023-03-30T22:21:34.046Z,50.40
2023-03-30T22:24:01.557Z,50.25
2023-03-30T22:26:28.096Z,50.33
2023-03-30T22:28:54.882Z,50.45
2023-03-30T22:31:21.366Z,50.40
2023-03-30T22:33:48.032Z,50.49
2023-03-30T22:36:19.210Z,50.46
2023-03-30T22:38:46.422Z,50.49
2023-03-30T22:41:12.819Z,50.43
2023-03-30T22:43:39.145Z,50.38
2023-03-30T22:46:06.101Z,50.44
2023-03-30T22:48:32.629Z,50.38
2023-03-30T22:51:02.390Z,50.45
2023-03-30T22:53:29.226Z,50.47
2023-03-30T22:55:55.586Z,50.35
2023-03-30T22:58:21.995Z,50.43
2023-03-30T23:00:48.418Z,50.39
2023-03-30T23:03:14.858Z,50.41
2023-03-30T23:05:41.266Z,50.36
2023-03-30T23:08:09.265Z,50.37
2023-03-30T23:10:37.448Z,50.51
2023-03-30T23:13:04.237Z,50.43
2023-03-30T23:15:30.564Z,50.44
2023-03-30T23:17:56.926Z,50.42
2023-03-30T23:20:23.285Z,50.45
2023-03-30T23:22:49.623Z,50.53
2023-03-30T23:25:16.449Z,50.36
2023-03-30T23:27:42.772Z,50.44
2023-03-30T23:30:09.299Z,50.40
2023-03-30T23:32:35.759Z,50.51
2023-03-30T23:35:02.243Z,50.46
2023-03-30T23:37:30.113Z,50.44
2023-03-30T23:39:58.822Z,50.35
2023-03-30T23:42:25.626Z,50.31
2023-03-30T23:44:51.952Z,50.34
2023-03-30T23:47:18.427Z,50.35
2023-03-30T23:49:44.764Z,50.40
2023-03-30T23:52:11.098Z,50.37
2023-03-30T23:54:40.720Z,50.45
2023-03-30T23:57:07.639Z,50.46
2023-03-30T23:59:34.369Z,50.49
